Latest Coastal Weather Observations for Mallacoota

IDV60701

Issued at 5:45 am EST Sunday 24 August 2014 (issued every 10 minutes, with the page automatically refreshed every 10 minutes)

About coastal observations | Map of coastal stations | Coastal observations for VIC | Marine services | Other Formats
Station Details ID: 084084 Name: MALLACOOTA Lat: -37.60 Lon: 149.73 Height: 22.0 m
Data from the previous 72 hours. | See also: Recent months at Mallacoota
Date/Time
EST
Temp

°C
Wind Pressure Rain
since 9am
mm
Weather Cloud Vis
km
Sea
Height
m
Swell
Dir
 
Speed
knots
Gust
knots
hPa Trend Height
m
Period
s
Dir
24/05:30am 10.9 N 7 10 1027.1 - 0.0 - - - - - - -
24/05:00am 10.5 NNW 5 7 1027.1 - 0.0 - - - - - - -
24/04:30am 10.5 NNW 5 6 1027.1 - 0.0 - - - - - - -
24/04:00am 10.8 NNW 4 6 1027.2 - 0.0 - - - - - - -
24/03:30am 11.5 N 7 10 1027.5 - 0.0 - - - - - - -
24/03:00am 11.1 N 6 7 1027.9 - 0.0 - - - - - - -
24/02:30am 11.7 N 6 8 1028.1 - 0.0 - - - - - - -
24/02:00am 12.4 N 7 10 1028.3 - 0.0 - - - - - - -
24/01:30am 12.7 N 7 9 1028.3 - 0.0 - - - - - - -
24/01:00am 12.9 N 7 10 1028.6 - 0.0 - - - - - - -
24/12:30am 13.2 N 9 12 1028.6 - 0.0 - - - - - - -
24/12:00am 13.1 N 7 10 1028.9 - 0.0 - - - - - - -
 
Date/Time
EST
Temp

°C
Wind Pressure Rain
since 9am
mm
Weather Cloud Vis
km
Sea
Height
m
Swell
Dir
 
Speed
knots
Gust
knots
hPa Trend Height
m
Period
s
Dir
23/11:30pm 13.2 N 7 10 1029.0 - 0.0 - - - - - - -
23/11:00pm 12.9 N 5 8 1029.2 - 0.0 - - - - - - -
23/10:30pm 13.1 N 5 6 1029.2 - 0.0 - - - - - - -
23/10:00pm 13.7 N 8 12 1029.2 - 0.0 - - - - - - -
23/09:30pm 13.5 N 8 12 1029.3 - 0.0 - - - - - - -
23/09:00pm 13.6 NNE 8 12 1029.5 - 0.0 - - - - - - -
23/08:30pm 13.5 NNE 7 10 1029.5 - 0.0 - - - - - - -
23/08:00pm 13.1 N 6 7 1029.4 - 0.0 - - - - - - -
23/07:30pm 13.6 NNE 8 11 1029.2 - 0.0 - - - - - - -
23/07:00pm 13.6 N 7 9 1029.3 - 0.0 - - - - - - -
23/06:30pm 13.8 N 7 11 1029.1 - 0.0 - - - - - - -
23/06:00pm 14.0 NNE 6 8 1029.1 - 0.0 - - - - - - -
23/05:30pm 14.8 NNE 9 12 1028.8 - 0.0 - - - - - - -
23/05:00pm 15.6 NNE 9 13 1028.5 - 0.0 - - - - - - -
23/04:30pm 16.2 NE 8 15 1028.2 - 0.0 - - - - - - -
23/04:00pm 16.7 NNE 8 14 1028.3 - 0.0 - - - - - - -
23/03:30pm 16.8 NNE 12 17 1028.2 - 0.0 - - - - - - -
23/03:00pm 17.1 NE 8 14 1028.4 - 0.0 - - - - - - -
23/02:30pm 17.8 NE 8 12 1028.4 - 0.0 - - - - - - -
23/02:00pm 17.4 NNE 10 13 1028.6 - 0.0 - - - - - - -
23/01:30pm 16.8 NNE 8 12 1028.9 - 0.0 - - - - - - -
23/01:00pm 17.0 NNE 9 13 1029.2 - 0.0 - - - - - - -
23/12:30pm 17.5 NNE 9 14 1029.6 - 0.0 - - - - - - -
23/12:00pm 17.2 NNE 9 13 1030.1 - 0.0 - - - - - - -
23/11:30am 16.7 NNE 10 13 1030.6 - 0.0 - - - - - - -
23/11:00am 16.5 E 5 8 1031.0 - 0.0 - - - - - - -
23/10:30am 15.5 ENE 5 6 1031.3 - 0.0 - - - - - - -
23/10:00am 15.1 NE 4 6 1031.5 - 0.0 - - - - - - -
23/09:30am 14.9 NNE 5 7 1031.7 - 0.0 - - - - - - -
23/09:00am 13.1 NNW 5 7 1031.9 - 0.0 - - - - - - -
23/08:30am 11.3 NW 6 8 1031.7 - 0.0 - - - - - - -
23/08:00am 10.6 NNW 4 5 1031.7 - 0.0 - - - - - - -
23/07:30am 9.4 NW 6 7 1031.5 - 0.0 - - - - - - -
23/07:00am 9.3 NW 5 7 1031.3 - 0.0 - - - - - - -
23/06:30am 9.5 NW 5 7 1030.8 - 0.0 - - - - - - -
23/06:00am 9.5 NNW 5 6 1030.8 - 0.0 - - - - - - -
23/05:30am 9.9 NNW 6 8 1030.7 - 0.0 - - - - - - -
23/05:00am 9.5 NW 6 7 1030.5 - 0.0 - - - - - - -
23/04:30am 9.7 NW 4 6 1030.4 - 0.0 - - - - - - -
23/04:00am 9.7 NW 5 6 1030.4 - 0.0 - - - - - - -
23/03:30am 10.3 NNW 5 8 1030.4 - 0.0 - - - - - - -
23/03:00am 9.3 N 5 6 1030.6 - 0.0 - - - - - - -
23/02:30am 10.1 N 5 6 1030.7 - 0.0 - - - - - - -
23/02:00am 10.7 NNW 4 6 1030.9 - 0.0 - - - - - - -
23/01:30am 10.5 N 4 5 1031.2 - 0.0 - - - - - - -
23/01:00am 11.2 N 5 7 1031.2 - 0.0 - - - - - - -
23/12:30am 10.9 N 5 8 1031.3 - 0.0 - - - - - - -
23/12:00am 11.7 N 7 10 1031.4 - 0.0 - - - - - - -
 
Date/Time
EST
Temp

°C
Wind Pressure Rain
since 9am
mm
Weather Cloud Vis
km
Sea
Height
m
Swell
Dir
 
Speed
knots
Gust
knots
hPa Trend Height
m
Period
s
Dir
22/11:30pm 10.9 NNW 6 8 1031.5 - 0.0 - - - - - - -
22/11:00pm 10.5 NNW 6 7 1031.6 - 0.0 - - - - - - -
22/10:30pm 10.7 NW 5 7 1031.9 - 0.0 - - - - - - -
22/10:00pm 10.9 NNW 5 7 1032.0 - 0.0 - - - - - - -
22/09:30pm 10.9 NNW 5 7 1032.0 - 0.0 - - - - - - -
22/09:00pm 11.3 N 5 9 1032.1 - 0.0 - - - - - - -
22/08:30pm 11.8 N 6 8 1031.8 - 0.0 - - - - - - -
22/08:00pm 11.9 NNE 7 9 1031.7 - 0.0 - - - - - - -
22/07:30pm 11.2 N 5 7 1031.7 - 0.0 - - - - - - -
22/07:00pm 11.8 N 5 7 1031.6 - 0.0 - - - - - - -
22/06:30pm 13.3 NNE 8 12 1031.3 - 0.0 - - - - - - -
22/06:00pm 13.7 NNE 7 9 1031.2 - 0.0 - - - - - - -
22/05:30pm 14.0 NNE 8 11 1030.9 - 0.0 - - - - - - -
22/05:00pm 14.5 NNE 9 13 1030.6 - 0.0 - - - - - - -
22/04:30pm 15.0 NE 9 16 1030.5 - 0.0 - - - - - - -
22/04:00pm 15.4 NE 9 14 1030.4 - 0.0 - - - - - - -
22/03:30pm 15.3 ENE 14 19 1030.3 - 0.0 - - - - - - -
22/03:00pm 15.7 ENE 11 17 1030.4 - 0.0 - - - - - - -
22/02:30pm 15.4 E 13 19 1030.5 - 0.0 - - - - - - -
22/02:00pm 15.5 ENE 12 17 1030.6 - 0.0 - - - - - - -
22/01:30pm 15.6 E 12 16 1030.9 - 0.0 - - - - - - -
22/01:00pm 15.5 E 11 15 1031.2 - 0.0 - - - - - - -
22/12:30pm 16.0 E 5 6 1031.8 - 0.0 - - - - - - -
22/12:00pm 15.7 E 6 8 1032.3 - 0.0 - - - - - - -
22/11:30am 16.3 ENE 6 8 1032.6 - 0.0 - - - - - - -
22/11:00am 16.2 NNE 8 12 1032.9 - 0.0 - - - - - - -
22/10:30am 15.9 NE 6 8 1033.1 - 0.0 - - - - - - -
22/10:00am 15.2 NNW 5 8 1033.3 - 0.0 - - - - - - -
22/09:30am 13.8 NNW 6 8 1033.3 - 0.0 - - - - - - -
22/09:00am 12.4 NW 6 8 1033.5 - 0.4 - - - - - - -
22/08:30am 10.7 NW 7 9 1033.2 - 0.4 - - - - - - -
22/08:00am 9.2 NW 7 9 1033.0 - 0.2 - - - - - - -
22/07:30am 7.9 NW 7 10 1032.8 - 0.2 - - - - - - -
22/07:00am 7.1 WNW 7 9 1032.4 - 0.2 - - - - - - -
22/06:30am 6.6 NW 6 8 1032.1 - 0.2 - - - - - - -
22/06:00am 6.3 WNW 7 8 1032.0 - 0.2 - - - - - - -
22/05:30am 6.3 WNW 6 8 1031.8 - 0.2 - - - - - - -
22/05:00am 6.8 WNW 7 9 1031.8 - 0.2 - - - - - - -
22/04:30am 7.0 WNW 7 8 1031.7 - 0.2 - - - - - - -
22/04:00am 6.8 WNW 6 8 1031.5 - 0.2 - - - - - - -
22/03:30am 7.1 WNW 6 9 1031.4 - 0.2 - - - - - - -
22/03:00am 7.4 WNW 6 7 1031.4 - 0.2 - - - - - - -
22/02:30am 7.8 NW 7 9 1031.4 - 0.2 - - - - - - -
22/02:00am 8.4 NW 6 7 1031.7 - 0.2 - - - - - - -
22/01:30am 8.4 NW 2 4 1032.0 - 0.2 - - - - - - -
22/01:00am 8.3 NNE 2 6 1032.2 - 0.2 - - - - - - -
22/12:30am 8.3 NW 6 8 1032.1 - 0.2 - - - - - - -
22/12:00am 8.5 WNW 6 7 1032.1 - 0.2 - - - - - - -
 
Date/Time
EST
Temp

°C
Wind Pressure Rain
since 9am
mm
Weather Cloud Vis
km
Sea
Height
m
Swell
Dir
 
Speed
knots
Gust
knots
hPa Trend Height
m
Period
s
Dir
21/11:30pm 8.9 NW 6 8 1032.2 - 0.2 - - - - - - -
21/11:00pm 9.2 NW 6 7 1032.1 - 0.2 - - - - - - -
21/10:30pm 9.7 WNW 5 6 1032.2 - 0.2 - - - - - - -
21/10:00pm 10.2 NNW 5 6 1032.3 - 0.2 - - - - - - -
21/09:30pm 10.2 NW 6 8 1032.2 - 0.2 - - - - - - -
21/09:00pm 10.2 NW 6 7 1032.2 - 0.2 - - - - - - -
21/08:30pm 9.9 NW 5 7 1032.0 - 0.2 - - - - - - -
21/08:00pm 9.8 WNW 4 5 1031.8 - 0.2 - - - - - - -
21/07:30pm 9.9 NW 2 4 1031.6 - 0.2 - - - - - - -
21/07:00pm 11.7 NE 4 8 1031.4 - 0.2 - - - - - - -
21/06:30pm 13.7 E 7 9 1031.1 - 0.2 - - - - - - -
21/06:00pm 13.9 E 8 11 1030.8 - 0.2 - - - - - - -
21/05:30pm 13.7 E 7 10 1030.5 - 0.2 - - - - - - -
21/05:00pm 13.7 CALM 0 0 1030.2 - 0.2 - - - - - - -
21/04:30pm 14.4 SE 2 4 1030.1 - 0.2 - - - - - - -
21/04:00pm 14.5 S 4 6 1030.0 - 0.2 - - - - - - -
21/03:30pm 14.6 S 4 6 1029.8 - 0.2 - - - - - - -
21/03:00pm 14.9 S 5 8 1029.9 - 0.2 - - - - - - -
21/02:30pm 14.6 S 7 9 1029.9 - 0.2 - - - - - - -
21/02:00pm 14.3 S 8 10 1030.0 - 0.2 - - - - - - -
21/01:30pm 14.5 S 8 10 1030.1 - 0.2 - - - - - - -
21/01:00pm 14.4 S 7 9 1030.2 - 0.2 - - - - - - -
21/12:30pm 14.2 S 7 9 1030.4 - 0.2 - - - - - - -
21/12:00pm 14.6 S 5 7 1030.9 - 0.2 - - - - - - -
21/11:30am 14.2 SE 4 6 1031.1 - 0.0 - - - - - - -
21/11:00am 13.5 SE 5 6 1031.4 - 0.0 - - - - - - -
21/10:30am 13.7 NE 4 6 1031.5 - 0.0 - - - - - - -
21/10:00am 12.8 NW 3 4 1031.5 - 0.0 - - - - - - -
21/09:30am 11.2 WNW 5 7 1031.3 - 0.0 - - - - - - -
21/09:00am 10.1 NW 6 7 1031.4 - 0.0 - - - - - - -
21/08:30am 9.3 W 6 8 1031.3 - 0.0 - - - - - - -
21/08:00am 8.8 WNW 6 7 1031.1 - 0.0 - - - - - - -
21/07:30am 7.8 NW 7 9 1030.8 - 0.0 - - - - - - -
21/07:00am 8.0 NNE 2 4 1030.6 - 0.0 - - - - - - -
21/06:30am 8.0 WNW 5 7 1030.0 - 0.0 - - - - - - -
21/06:00am 8.0 WNW 5 7 1029.8 - 0.0 - - - - - - -

Other Formats:

Comma delimited format used in spreadsheet applications
http://www.bom.gov.au/fwo/IDV60701/IDV60701.94935.axf

JavaScript Object Notation format (JSON) in row-major order
http://www.bom.gov.au/fwo/IDV60701/IDV60701.94935.json